SBRF/REC METAR and TAF weather

Enter ICAO airport designator
Station Type Date Time Source
SBRF METAR 2020/04/04 04:00 UTC NOAA

SBRF 040400Z 22002KT 9999 SCT015 28/25 Q1010


Station Type Date Time Source
SBRF Decoded METAR 2020/04/04 04:00 UTC NOAA

Recife Aeroporto , Brazil (SBRF) 08-04S 034-51W
Apr 04, 2020 - 12:00 AM EDT / 2020.04.04 0400 UTC
Wind: from the SW (220 degrees) at 2 MPH (2 KT):0
Visibility: greater than 7 mile(s):0
Sky conditions: partly cloudy
Temperature: 82 F (28 C)
Dew Point: 77 F (25 C)
Relative Humidity: 83%
Pressure (altimeter): 29.83 in. Hg (1010 hPa)
ob: SBRF 040400Z 22002KT 9999 SCT015 28/25 Q1010
cycle: 4

Station Type Date Time Source
SBRF TAF 2020/04/04 06:06 UTC NOAA

TAF SBRF 040300Z 0406/0506 20006KT 9999 SCT015 TN25/0409Z TX28/0418Z
BECMG 0407/0409 20007KT 8000 VCSH SCT010 FEW024TCU
BECMG 0410/0412 19005KT 9999 NSW SCT020
BECMG 0413/0415 15010KT SCT020 FEW024TCU
BECMG 0416/0418 13006KT VCSH BKN015 FEW020TCU
BECMG 0419/0421 17008KT NSW SCT015
BECMG 0422/0424 21005KT SCT023
BECMG 0501/0503 20005KT BKN015
RMK PEW

Example: see airport list